Time;durP1;ratioP1;P1;durP2;ratioP2;P2;SDS_P1;SDS_P2;PMS_P1;PMS_P2;Temp;Humidity;BMP_temperature;BMP_pressure;BME280_temperature;BME280_humidity;BME280_pressure;Samples;Min_cycle;Max_cycle;Signal;HPM_P1;HPM_P2
2021/07/25 00:01:26;;;;;;;17.08;10.20;;;;;;;15.88;91.60;95189.13;5110220;27;20067;-69
2021/07/25 00:03:54;;;;;;;15.10;9.50;;;;;;;15.95;90.57;95183.66;5111791;27;20505;-69
2021/07/25 00:06:30;;;;;;;13.98;11.13;;;;;;;16.07;90.04;95186.88;5112582;27;20074;-69
2021/07/25 00:08:57;;;;;;;18.15;9.40;;;;;;;16.10;89.05;95191.63;5110025;27;20057;-69
2021/07/25 00:11:24;;;;;;;13.02;10.13;;;;;;;16.05;90.08;95183.72;5108125;28;20035;-69
2021/07/25 00:13:52;;;;;;;11.35;9.57;;;;;;;15.99;89.38;95184.72;5110239;27;20511;-69
2021/07/25 00:16:19;;;;;;;14.40;9.52;;;;;;;16.03;88.29;95191.06;5108339;27;20492;-69
2021/07/25 00:18:46;;;;;;;16.52;9.48;;;;;;;15.95;89.07;95194.16;5109930;27;20059;-69
2021/07/25 00:21:13;;;;;;;15.18;10.45;;;;;;;15.90;89.49;95191.50;5110918;27;20035;-69
2021/07/25 00:23:47;;;;;;;12.60;9.88;;;;;;;15.86;89.93;95192.03;5108294;27;20051;-69
2021/07/25 00:26:17;;;;;;;13.15;9.52;;;;;;;15.95;90.20;95204.66;5108674;27;20039;-69
2021/07/25 00:28:46;;;;;;;20.02;11.02;;;;;;;15.76;90.54;95176.22;5108822;27;20028;-69
2021/07/25 00:31:13;;;;;;;14.90;10.98;;;;;;;15.76;91.76;95186.72;5111020;27;20047;-69
2021/07/25 00:33:40;;;;;;;15.48;10.48;;;;;;;15.81;92.08;95189.38;5109328;27;20493;-69
2021/07/25 00:36:07;;;;;;;15.70;11.20;;;;;;;15.63;92.34;95174.81;5108176;28;20032;-69
2021/07/25 00:38:34;;;;;;;15.88;11.38;;;;;;;15.75;92.51;95194.84;5110956;27;20084;-69
2021/07/25 00:41:10;;;;;;;17.35;11.25;;;;;;;15.76;92.72;95191.19;5108378;27;20467;-70
2021/07/25 00:43:38;;;;;;;16.67;10.45;;;;;;;15.75;92.01;95182.50;5107685;28;20508;-70
2021/07/25 00:46:05;;;;;;;20.13;11.52;;;;;;;15.72;92.41;95184.81;5109532;27;20050;-70
2021/07/25 00:48:32;;;;;;;11.98;10.20;;;;;;;15.81;91.46;95202.50;5110596;27;20112;-69
2021/07/25 00:50:59;;;;;;;18.08;11.45;;;;;;;15.78;90.19;95194.34;5111015;27;20096;-70
2021/07/25 00:53:27;;;;;;;13.00;10.13;;;;;;;15.81;89.57;95197.25;5108331;27;20055;-69
2021/07/25 00:55:54;;;;;;;14.88;11.63;;;;;;;15.79;88.67;95201.97;5111328;27;20043;-70
2021/07/25 00:58:21;;;;;;;13.90;11.07;;;;;;;15.67;89.49;95193.47;5107113;28;20032;-69
2021/07/25 01:00:48;;;;;;;13.23;9.48;;;;;;;15.64;89.84;95199.22;5110869;27;20036;-69
2021/07/25 01:03:32;;;;;;;11.77;10.02;;;;;;;15.67;89.14;95188.22;5111530;27;20043;-69
2021/07/25 01:06:25;;;;;;;14.48;9.90;;;;;;;15.61;88.90;95194.47;5107855;27;20493;-69
2021/07/25 01:09:02;;;;;;;10.77;9.35;;;;;;;15.56;88.69;95186.59;5101764;27;20624;-69
2021/07/25 01:11:39;;;;;;;13.75;9.35;;;;;;;15.45;88.79;95191.75;5108750;27;20051;-69
2021/07/25 01:14:07;;;;;;;10.88;9.32;;;;;;;15.39;88.55;95192.75;5109563;27;20044;-69
2021/07/25 01:16:34;;;;;;;12.18;9.25;;;;;;;15.33;88.77;95183.28;5108564;27;20455;-69
2021/07/25 01:19:01;;;;;;;13.52;9.55;;;;;;;15.31;88.67;95180.13;5107151;27;20035;-69
2021/07/25 01:21:28;;;;;;;15.38;9.77;;;;;;;15.27;88.54;95187.69;5110133;27;20036;-69
2021/07/25 01:23:58;;;;;;;14.27;10.30;;;;;;;15.22;88.58;95187.66;5105954;27;20040;-69
2021/07/25 01:26:30;;;;;;;16.30;10.25;;;;;;;15.06;89.46;95178.88;5106243;28;20042;-69
2021/07/25 01:29:01;;;;;;;14.25;9.88;;;;;;;14.99;90.22;95186.16;5107077;27;20040;-69
2021/07/25 01:31:37;;;;;;;16.25;10.10;;;;;;;14.96;90.64;95191.09;5108223;27;20039;-69
2021/07/25 01:34:05;;;;;;;13.68;9.35;;;;;;;14.92;90.74;95190.81;5106922;27;20130;-69
2021/07/25 01:36:36;;;;;;;13.73;10.25;;;;;;;14.83;90.42;95173.94;5106623;28;20519;-69
2021/07/25 01:39:03;;;;;;;12.25;9.65;;;;;;;14.85;90.94;95177.13;5107926;27;20040;-69
2021/07/25 01:41:29;;;;;;;15.93;10.57;;;;;;;14.95;90.30;95182.47;5106389;28;20100;-69
2021/07/25 01:43:56;;;;;;;13.20;10.13;;;;;;;14.96;89.90;95183.25;5107863;27;20417;-69
2021/07/25 01:46:23;;;;;;;11.18;9.75;;;;;;;14.66;91.99;95185.34;5089831;27;20055;-69
2021/07/25 01:48:50;;;;;;;13.80;9.95;;;;;;;14.63;91.80;95180.59;5108272;27;20040;-69
2021/07/25 01:51:17;;;;;;;17.70;10.05;;;;;;;14.61;91.83;95182.66;5107980;27;20119;-70
2021/07/25 01:53:43;;;;;;;14.80;10.07;;;;;;;14.55;91.76;95186.25;5106414;28;20050;-70
2021/07/25 01:56:10;;;;;;;16.98;10.00;;;;;;;14.52;92.02;95178.88;5108158;27;20043;-69
2021/07/25 01:58:37;;;;;;;14.52;9.80;;;;;;;14.53;91.69;95185.69;5107848;27;20039;-69
2021/07/25 02:01:04;;;;;;;17.25;10.40;;;;;;;14.52;91.39;95178.88;5108541;27;20489;-69
2021/07/25 02:03:31;;;;;;;15.18;9.18;;;;;;;14.58;91.10;95172.66;5107549;28;20535;-69
2021/07/25 02:05:58;;;;;;;13.60;9.98;;;;;;;14.61;90.94;95176.63;5105467;28;20047;-69
2021/07/25 02:08:25;;;;;;;12.43;8.82;;;;;;;14.54;90.73;95167.09;5106651;27;20051;-69
2021/07/25 02:10:52;;;;;;;15.80;9.43;;;;;;;14.59;90.34;95174.25;5105173;27;20405;-69
2021/07/25 02:13:21;;;;;;;13.45;9.40;;;;;;;14.62;89.75;95184.25;5105031;27;20044;-70
2021/07/25 02:15:48;;;;;;;11.18;9.30;;;;;;;14.63;89.34;95180.59;5104954;28;20054;-70
2021/07/25 02:18:15;;;;;;;16.90;8.45;;;;;;;14.53;89.24;95164.72;5105101;28;20035;-69
2021/07/25 02:20:42;;;;;;;13.38;9.23;;;;;;;14.64;89.01;95178.75;5104973;27;20044;-69
2021/07/25 02:23:09;;;;;;;17.27;9.77;;;;;;;14.65;88.31;95183.75;5103759;28;20043;-69
2021/07/25 02:25:38;;;;;;;12.57;9.55;;;;;;;14.59;88.66;95190.00;5103930;27;20040;-69
2021/07/25 02:28:06;;;;;;;15.82;10.38;;;;;;;14.58;89.45;95193.63;5105205;28;20058;-69
2021/07/25 02:30:33;;;;;;;13.07;10.00;;;;;;;14.49;90.21;95200.31;5103609;28;20042;-70
2021/07/25 02:32:59;;;;;;;15.15;9.88;;;;;;;14.46;91.00;95196.38;5105113;28;20092;-69
2021/07/25 02:35:26;;;;;;;16.40;9.40;;;;;;;14.38;91.36;95203.88;5105783;28;20036;-69
2021/07/25 02:37:53;;;;;;;11.77;8.85;;;;;;;14.19;91.63;95201.59;5105795;28;20067;-69
2021/07/25 02:40:20;;;;;;;13.80;9.32;;;;;;;14.07;91.27;95203.53;5105665;27;20035;-69
2021/07/25 02:42:47;;;;;;;13.88;9.27;;;;;;;13.87;92.12;95204.06;5106036;28;20036;-69
2021/07/25 02:45:14;;;;;;;15.43;10.30;;;;;;;13.77;94.64;95210.75;5105688;28;20038;-69
2021/07/25 02:47:40;;;;;;;13.23;10.07;;;;;;;13.88;94.54;95211.69;5105260;28;20043;-69
2021/07/25 02:50:08;;;;;;;15.98;10.02;;;;;;;13.98;93.85;95211.00;5106422;28;20505;-69
2021/07/25 02:52:35;;;;;;;14.52;9.45;;;;;;;14.06;92.92;95196.69;5105567;28;20048;-69
2021/07/25 02:55:04;;;;;;;14.15;9.05;;;;;;;14.19;92.00;95204.19;5105512;28;20047;-69
2021/07/25 02:57:31;;;;;;;13.82;10.63;;;;;;;14.21;91.38;95203.97;5108701;28;20050;-69
2021/07/25 02:59:57;;;;;;;16.00;10.00;;;;;;;14.29;90.78;95200.91;5103441;28;20055;-69
2021/07/25 03:02:24;;;;;;;16.30;10.48;;;;;;;14.26;90.44;95191.72;5103893;28;20508;-69
2021/07/25 03:04:52;;;;;;;20.52;11.05;;;;;;;14.28;90.46;95200.13;5087182;28;20105;-69
2021/07/25 03:07:19;;;;;;;12.57;10.13;;;;;;;14.29;90.63;95206.91;5105205;28;20562;-69
2021/07/25 03:09:46;;;;;;;21.38;10.40;;;;;;;14.24;90.71;95199.03;5105519;28;20509;-69
2021/07/25 03:12:13;;;;;;;19.30;9.98;;;;;;;14.22;91.14;95206.31;5104658;28;20035;-69
2021/07/25 03:14:39;;;;;;;14.65;10.43;;;;;;;14.20;90.90;95203.16;5105164;28;20043;-69
2021/07/25 03:17:06;;;;;;;13.73;10.18;;;;;;;14.21;90.51;95209.19;5105886;28;20039;-70
2021/07/25 03:19:33;;;;;;;15.90;9.63;;;;;;;14.20;90.88;95208.38;5107072;28;20097;-70
2021/07/25 03:22:00;;;;;;;12.00;9.32;;;;;;;14.17;90.82;95214.13;5104855;28;20043;-69
2021/07/25 03:24:27;;;;;;;17.02;9.77;;;;;;;14.14;91.15;95214.63;5104187;28;20496;-69
2021/07/25 03:26:54;;;;;;;12.25;8.82;;;;;;;14.20;90.90;95211.00;5105495;28;20049;-69
2021/07/25 03:29:21;;;;;;;14.48;9.63;;;;;;;14.28;90.79;95220.28;5105191;28;20031;-69
2021/07/25 03:31:47;;;;;;;14.65;8.68;;;;;;;14.32;91.02;95216.91;5105493;28;20057;-70
2021/07/25 03:34:14;;;;;;;17.38;9.45;;;;;;;14.34;90.33;95204.38;5099817;28;20497;-69
2021/07/25 03:36:43;;;;;;;17.30;8.98;;;;;;;14.39;90.18;95210.72;5106137;28;20035;-69
2021/07/25 03:39:14;;;;;;;12.88;8.90;;;;;;;14.39;90.64;95210.72;5105277;28;20062;-69
2021/07/25 03:41:41;;;;;;;15.43;8.70;;;;;;;14.43;90.43;95211.81;5105684;28;20036;-69
2021/07/25 03:44:08;;;;;;;18.30;8.68;;;;;;;14.41;90.72;95208.63;5106200;28;20048;-69
2021/07/25 03:46:35;;;;;;;16.08;8.02;;;;;;;14.40;90.97;95207.03;5104956;28;20039;-69
2021/07/25 03:49:02;;;;;;;12.02;8.07;;;;;;;14.34;91.09;95209.59;5107484;28;20042;-69
2021/07/25 03:51:30;;;;;;;13.18;7.95;;;;;;;14.46;91.55;95216.56;5112765;27;20042;-69
2021/07/25 03:53:57;;;;;;;12.93;8.10;;;;;;;14.46;91.78;95211.31;5111482;27;20048;-69
2021/07/25 03:56:24;;;;;;;14.15;7.50;;;;;;;14.55;92.08;95225.56;5111085;27;20028;-69
2021/07/25 03:58:51;;;;;;;15.85;9.25;;;;;;;14.42;92.35;95233.78;5112700;27;20412;-70
2021/07/25 04:01:17;;;;;;;16.05;10.07;;;;;;;14.21;92.21;95241.41;5109457;27;20043;-70
2021/07/25 04:03:46;;;;;;;25.38;12.10;;;;;;;13.96;93.02;95250.53;5109509;27;20534;-70
2021/07/25 04:06:13;;;;;;;19.85;12.20;;;;;;;13.73;94.46;95250.72;5109957;27;20032;-70
2021/07/25 04:08:40;;;;;;;28.52;13.48;;;;;;;13.70;95.69;95245.97;5110170;27;20039;-70
2021/07/25 04:11:06;;;;;;;35.67;15.50;;;;;;;13.70;97.55;95262.47;5108592;27;20047;-70
2021/07/25 04:13:33;;;;;;;40.53;15.57;;;;;;;13.55;99.16;95257.78;5109987;27;20172;-70
2021/07/25 04:16:01;;;;;;;40.70;16.75;;;;;;;13.54;100.00;95258.84;5090885;28;20481;-70
2021/07/25 04:18:27;;;;;;;26.77;16.45;;;;;;;13.57;100.00;95268.81;5107769;28;20110;-69
2021/07/25 04:20:54;;;;;;;34.97;17.60;;;;;;;13.46;100.00;95267.06;5112501;27;20416;-70
2021/07/25 04:23:21;;;;;;;33.63;17.25;;;;;;;13.45;100.00;95270.75;5107105;28;20095;-70
2021/07/25 04:25:48;;;;;;;42.58;18.35;;;;;;;13.53;100.00;95262.47;5111983;27;20474;-70
2021/07/25 04:28:15;;;;;;;39.55;18.73;;;;;;;13.61;100.00;95273.56;5111162;27;20721;-70
2021/07/25 04:30:42;;;;;;;31.15;17.58;;;;;;;13.52;100.00;95245.22;5110643;27;20063;-70
2021/07/25 04:33:09;;;;;;;31.95;19.10;;;;;;;13.67;100.00;95259.56;5110317;27;20035;-70
2021/07/25 04:35:38;;;;;;;32.17;17.48;;;;;;;13.82;100.00;95265.00;5109427;27;20057;-70
2021/07/25 04:38:06;;;;;;;28.25;18.05;;;;;;;13.98;100.00;95262.59;5110744;27;20039;-70
2021/07/25 04:40:33;;;;;;;27.58;17.45;;;;;;;14.09;100.00;95270.34;5108451;27;20036;-70
2021/07/25 04:43:03;;;;;;;25.98;17.70;;;;;;;14.24;100.00;95272.38;5107775;28;20054;-71
2021/07/25 04:45:54;;;;;;;22.88;17.63;;;;;;;14.32;100.00;95269.31;5106540;28;20051;-70
2021/07/25 04:48:43;;;;;;;23.55;17.60;;;;;;;14.45;100.00;95267.38;5090907;28;20390;-70
2021/07/25 04:51:10;;;;;;;24.48;17.70;;;;;;;14.48;100.00;95272.13;5106262;27;20776;-70
2021/07/25 04:53:39;;;;;;;22.63;16.83;;;;;;;14.52;100.00;95268.00;5108447;27;20052;-71
2021/07/25 04:56:12;;;;;;;23.35;16.98;;;;;;;14.55;100.00;95257.03;5108375;27;20073;-70
2021/07/25 04:59:05;;;;;;;17.95;15.77;;;;;;;14.76;100.00;95268.53;5107827;27;20039;-70
2021/07/25 05:01:36;;;;;;;25.67;16.77;;;;;;;14.90;100.00;95263.72;5108142;27;20116;-70
2021/07/25 05:04:06;;;;;;;22.40;15.60;;;;;;;14.94;100.00;95283.16;5107343;27;20078;-70
2021/07/25 05:06:33;;;;;;;27.10;16.00;;;;;;;14.93;100.00;95283.38;5109344;27;20409;-70
2021/07/25 05:09:00;;;;;;;21.02;14.77;;;;;;;14.91;100.00;95270.53;5110112;27;20496;-70
2021/07/25 05:11:32;;;;;;;17.30;14.05;;;;;;;15.09;99.96;95288.56;5107290;27;20047;-70
2021/07/25 05:14:02;;;;;;;24.05;14.38;;;;;;;15.19;99.95;95279.19;5107798;27;20040;-70
2021/07/25 05:16:39;;;;;;;17.45;12.82;;;;;;;15.24;97.67;95284.50;5106120;27;20043;-70
2021/07/25 05:19:24;;;;;;;21.00;14.23;;;;;;;15.37;98.27;95288.53;5109148;27;20497;-70
2021/07/25 05:22:17;;;;;;;18.83;13.82;;;;;;;15.52;98.22;95290.50;5108752;27;20051;-70
2021/07/25 05:24:46;;;;;;;16.98;13.98;;;;;;;15.59;96.90;95285.81;5105492;28;20127;-70
2021/07/25 05:27:22;;;;;;;18.00;13.75;;;;;;;15.58;97.29;95284.25;5107974;28;20051;-70
2021/07/25 05:29:51;;;;;;;17.23;14.65;;;;;;;15.60;98.57;95287.41;5108067;27;20040;-71
2021/07/25 05:32:19;;;;;;;19.13;15.05;;;;;;;15.75;97.64;95284.13;5110927;27;20050;-70
2021/07/25 05:34:47;;;;;;;20.70;13.55;;;;;;;15.75;97.02;95290.16;5106422;27;20532;-71
2021/07/25 05:37:13;;;;;;;18.70;14.32;;;;;;;15.73;97.33;95289.59;5110773;27;20044;-70
2021/07/25 05:39:40;;;;;;;17.35;12.93;;;;;;;15.90;97.13;95305.25;5093118;27;20035;-71
2021/07/25 05:42:07;;;;;;;23.65;14.57;;;;;;;15.92;96.68;95289.22;5111274;27;20501;-71
2021/07/25 05:44:34;;;;;;;23.27;14.32;;;;;;;16.08;96.90;95303.25;5109587;27;20428;-70
2021/07/25 05:47:01;;;;;;;18.65;13.13;;;;;;;16.16;95.74;95295.69;5112372;27;20702;-71
2021/07/25 05:49:27;;;;;;;17.02;12.02;;;;;;;16.34;95.19;95297.09;5111502;27;20467;-70
2021/07/25 05:51:54;;;;;;;13.68;12.15;;;;;;;16.50;94.24;95297.97;5091207;28;20054;-70
2021/07/25 05:54:21;;;;;;;15.48;11.70;;;;;;;16.68;91.52;95286.19;5110184;27;20500;-70
2021/07/25 05:56:49;;;;;;;16.27;11.88;;;;;;;16.83;92.12;95288.13;5108336;27;20051;-71
2021/07/25 05:59:16;;;;;;;15.15;10.50;;;;;;;16.90;89.80;95286.03;5107098;27;20050;-71
2021/07/25 06:01:44;;;;;;;15.80;11.57;;;;;;;17.03;89.97;95281.31;5104891;27;20413;-71
2021/07/25 06:04:11;;;;;;;16.45;11.07;;;;;;;17.25;89.59;95289.81;5107855;27;20863;-71
2021/07/25 06:06:38;;;;;;;16.65;12.75;;;;;;;17.38;90.55;95289.28;5107497;27;20562;-70
2021/07/25 06:09:07;;;;;;;17.38;11.73;;;;;;;17.49;90.68;95281.38;5110374;27;20036;-70
2021/07/25 06:11:34;;;;;;;20.42;11.20;;;;;;;17.72;90.24;95296.66;5106413;27;20401;-70
2021/07/25 06:14:02;;;;;;;18.52;11.95;;;;;;;17.86;90.92;95298.78;5107919;27;20042;-71
2021/07/25 06:16:29;;;;;;;16.88;12.80;;;;;;;18.02;89.11;95297.69;5107672;27;20153;-71
2021/07/25 06:18:56;;;;;;;20.48;11.88;;;;;;;18.13;86.78;95293.19;5114404;27;20035;-71
2021/07/25 06:21:27;;;;;;;11.70;10.07;;;;;;;18.33;85.53;95293.16;5111357;27;20047;-70
2021/07/25 06:23:55;;;;;;;15.35;10.80;;;;;;;18.46;83.72;95301.56;5108771;27;20054;-71
2021/07/25 06:26:24;;;;;;;25.02;10.80;;;;;;;18.51;84.22;95297.06;5108140;27;20046;-71
2021/07/25 06:28:50;;;;;;;13.13;10.77;;;;;;;18.60;82.94;95296.50;5112565;27;20489;-71
2021/07/25 06:31:17;;;;;;;20.67;11.38;;;;;;;18.72;83.97;95300.38;5110369;27;20497;-71
2021/07/25 06:33:44;;;;;;;17.58;11.18;;;;;;;18.85;83.63;95287.69;5110145;27;20060;-72
2021/07/25 06:36:12;;;;;;;18.63;11.38;;;;;;;18.93;81.20;95283.72;5110263;27;20044;-71
2021/07/25 06:38:41;;;;;;;13.18;10.35;;;;;;;18.94;81.18;95277.38;5109760;28;20040;-71
2021/07/25 06:41:08;;;;;;;18.02;11.18;;;;;;;19.20;79.58;95294.63;5105878;28;20050;-71
2021/07/25 06:43:35;;;;;;;16.17;10.75;;;;;;;19.29;79.55;95298.28;5108928;28;20047;-71
2021/07/25 06:46:04;;;;;;;19.73;11.07;;;;;;;19.47;79.32;95301.34;5106938;28;20429;-71
2021/07/25 06:48:32;;;;;;;13.60;9.65;;;;;;;19.60;77.98;95308.63;5107784;28;20036;-71
2021/07/25 06:51:01;;;;;;;20.13;9.93;;;;;;;19.64;78.12;95304.38;5108811;28;20054;-71
2021/07/25 06:53:29;;;;;;;15.95;9.75;;;;;;;19.79;77.06;95300.03;5106796;28;20530;-71
2021/07/25 06:55:58;;;;;;;15.10;10.43;;;;;;;19.89;76.18;95305.25;5106254;28;20039;-70
2021/07/25 06:58:25;;;;;;;14.25;9.55;;;;;;;20.00;75.84;95305.94;5106092;28;20053;-71
2021/07/25 07:00:52;;;;;;;13.43;9.38;;;;;;;19.95;74.35;95298.88;5104520;28;20496;-70
2021/07/25 07:03:20;;;;;;;17.95;8.73;;;;;;;20.15;74.57;95312.94;5105280;28;20516;-71
2021/07/25 07:05:47;;;;;;;17.73;8.57;;;;;;;20.08;74.19;95299.25;5105832;28;20119;-71
2021/07/25 07:08:15;;;;;;;11.35;8.80;;;;;;;20.31;74.03;95309.09;5105034;28;20036;-73
2021/07/25 07:10:45;;;;;;;12.90;9.00;;;;;;;20.40;72.14;95294.19;5091075;28;20051;-73
2021/07/25 07:13:14;;;;;;;16.08;9.35;;;;;;;20.64;71.54;95304.00;5104277;28;20050;-72
2021/07/25 07:15:43;;;;;;;14.75;8.55;;;;;;;20.72;71.28;95300.69;5101656;28;20039;-72
2021/07/25 07:18:10;;;;;;;12.48;8.70;;;;;;;20.89;70.14;95294.16;5105921;28;20035;-71
2021/07/25 07:20:37;;;;;;;11.23;8.23;;;;;;;21.02;67.85;95285.50;5105410;28;20151;-71
2021/07/25 07:23:06;;;;;;;16.02;9.43;;;;;;;21.24;68.69;95305.34;5104209;28;20043;-70
2021/07/25 07:25:43;;;;;;;10.70;7.97;;;;;;;21.34;68.70;95291.97;5106970;28;20032;-70
2021/07/25 07:28:11;;;;;;;11.68;8.15;;;;;;;21.54;68.12;95289.03;5108879;27;20059;-72
2021/07/25 07:30:39;;;;;;;13.43;7.95;;;;;;;21.79;66.33;95289.69;5106200;27;20035;-71
2021/07/25 07:33:19;;;;;;;15.50;9.20;;;;;;;21.89;67.07;95294.03;5105890;27;20653;-71
2021/07/25 07:35:46;;;;;;;13.13;7.45;;;;;;;21.94;64.68;95284.13;5107974;28;20047;-71
2021/07/25 07:38:14;;;;;;;12.55;7.60;;;;;;;22.05;69.66;95297.22;5108928;27;20050;-71
2021/07/25 07:40:43;;;;;;;12.35;7.78;;;;;;;22.18;65.88;95301.72;5108415;28;20517;-71
2021/07/25 07:43:12;;;;;;;15.52;7.80;;;;;;;22.43;63.75;95302.38;5107891;28;20568;-71
2021/07/25 07:45:40;;;;;;;12.00;8.35;;;;;;;22.62;63.66;95297.75;5108452;27;20421;-71
2021/07/25 07:48:07;;;;;;;11.38;7.50;;;;;;;22.69;62.37;95295.50;5108800;28;20038;-71
2021/07/25 07:50:34;;;;;;;15.23;7.82;;;;;;;22.87;62.43;95306.31;5107946;28;20043;-71
2021/07/25 07:53:01;;;;;;;18.02;8.27;;;;;;;23.06;62.85;95293.69;5106984;27;20055;-71
2021/07/25 07:55:28;;;;;;;10.82;7.55;;;;;;;23.35;61.79;95294.41;5089941;28;20042;-71
2021/07/25 07:57:54;;;;;;;10.80;7.10;;;;;;;23.52;62.89;95283.13;5107902;27;20491;-71
2021/07/25 08:00:21;;;;;;;13.77;7.70;;;;;;;23.76;57.96;95296.88;5109848;27;20032;-71
2021/07/25 08:02:48;;;;;;;12.18;7.38;;;;;;;23.91;59.13;95294.97;5107495;27;20055;-71
2021/07/25 08:05:18;;;;;;;10.68;7.30;;;;;;;24.08;56.76;95289.75;5110108;27;20043;-71
2021/07/25 08:07:45;;;;;;;11.95;7.05;;;;;;;24.21;57.61;95294.19;5108732;27;20480;-71
2021/07/25 08:10:12;;;;;;;11.95;7.00;;;;;;;24.32;55.26;95299.25;5109019;28;20043;-71
2021/07/25 08:12:40;;;;;;;12.23;6.43;;;;;;;24.28;57.30;95292.97;5109025;28;20046;-72
2021/07/25 08:15:08;;;;;;;14.50;6.55;;;;;;;24.31;54.96;95292.34;5091822;27;20062;-72
2021/07/25 08:17:35;;;;;;;11.85;7.55;;;;;;;24.41;55.21;95292.09;5107579;28;20485;-72
2021/07/25 08:20:04;;;;;;;11.82;6.65;;;;;;;24.61;54.41;95296.91;5108775;28;20035;-72
2021/07/25 08:22:31;;;;;;;14.18;6.97;;;;;;;24.79;53.85;95291.59;5110708;27;20044;-71
2021/07/25 08:24:58;;;;;;;8.15;6.60;;;;;;;25.11;54.95;95303.72;5107639;27;20036;-72
2021/07/25 08:27:25;;;;;;;12.73;6.50;;;;;;;25.12;54.53;95299.16;5108732;27;20040;-72
2021/07/25 08:29:52;;;;;;;13.88;6.85;;;;;;;25.29;52.04;95283.22;5108421;28;20042;-72
2021/07/25 08:32:19;;;;;;;7.85;5.18;;;;;;;25.34;48.75;95280.41;5108328;28;20497;-72
2021/07/25 08:34:45;;;;;;;11.63;5.75;;;;;;;25.70;46.77;95281.94;5108037;27;20040;-72
2021/07/25 08:37:13;;;;;;;11.30;7.80;;;;;;;25.89;50.76;95280.81;5108861;27;20053;-72
2021/07/25 08:39:39;;;;;;;8.52;4.90;;;;;;;26.03;44.11;95283.31;5107289;28;20027;-72
2021/07/25 08:42:12;;;;;;;5.85;5.13;;;;;;;26.06;43.31;95278.13;5090047;27;20172;-72
2021/07/25 08:44:49;;;;;;;8.77;4.90;;;;;;;26.22;42.90;95285.63;5107828;28;20039;-72
2021/07/25 08:47:17;;;;;;;14.07;5.57;;;;;;;26.35;43.37;95284.63;5107676;28;20544;-72
2021/07/25 08:50:14;;;;;;;8.98;4.43;;;;;;;26.45;41.12;95278.94;5088375;28;20044;-72
2021/07/25 08:52:44;;;;;;;9.10;4.95;;;;;;;26.47;40.32;95276.72;5066699;28;20048;-73
2021/07/25 08:55:17;;;;;;;13.25;5.65;;;;;;;26.68;40.29;95282.13;5107721;27;20043;-72
2021/07/25 08:57:46;;;;;;;6.60;4.80;;;;;;;26.84;39.40;95282.34;5108085;27;20036;-72
2021/07/25 09:00:16;;;;;;;11.63;5.30;;;;;;;27.06;38.46;95275.13;5107996;28;20530;-73
2021/07/25 09:02:44;;;;;;;5.93;4.70;;;;;;;27.26;38.12;95279.75;5107743;28;20036;-73
2021/07/25 09:05:11;;;;;;;6.80;5.18;;;;;;;27.55;40.22;95286.13;5088125;28;20055;-72
2021/07/25 09:07:40;;;;;;;7.60;4.43;;;;;;;27.67;37.41;95276.56;5106165;28;20054;-73
2021/07/25 09:10:19;;;;;;;6.25;4.30;;;;;;;27.64;35.82;95270.78;5088751;28;20040;-72
2021/07/25 09:12:49;;;;;;;8.35;4.75;;;;;;;27.90;37.26;95269.75;5108803;27;20040;-73
2021/07/25 09:15:26;;;;;;;10.13;4.57;;;;;;;28.14;36.69;95269.00;5106467;28;20062;-73
2021/07/25 09:17:55;;;;;;;5.22;4.40;;;;;;;28.38;39.25;95268.25;5106088;28;20541;-73
2021/07/25 09:20:24;;;;;;;11.40;4.82;;;;;;;28.69;36.75;95266.94;5088884;28;20624;-73
2021/07/25 09:22:53;;;;;;;7.88;4.60;;;;;;;28.62;36.05;95266.72;5106767;28;20047;-73
2021/07/25 09:25:20;;;;;;;5.35;4.35;;;;;;;28.39;38.92;95264.47;5104357;28;20520;-73
2021/07/25 09:28:02;;;;;;;11.80;5.30;;;;;;;28.26;37.64;95264.81;5106127;27;20038;-73
2021/07/25 09:30:30;;;;;;;8.65;5.03;;;;;;;28.54;36.70;95259.56;5106518;28;20501;-73
2021/07/25 09:32:57;;;;;;;8.00;4.65;;;;;;;28.38;37.36;95249.53;5088324;28;20058;-74
2021/07/25 09:35:29;;;;;;;7.40;4.97;;;;;;;28.65;34.15;95260.72;5106130;27;20031;-72
2021/07/25 09:38:01;;;;;;;9.52;5.70;;;;;;;28.91;34.25;95251.50;5087849;28;20044;-73
2021/07/25 09:40:33;;;;;;;6.97;4.25;;;;;;;29.07;32.70;95254.28;5105357;28;20038;-73
2021/07/25 09:43:11;;;;;;;6.10;5.03;;;;;;;29.01;34.51;95251.06;5106769;28;20055;-73
2021/07/25 09:45:47;;;;;;;6.75;3.78;;;;;;;28.78;34.39;95248.84;5106722;28;20047;-73
2021/07/25 09:48:14;;;;;;;8.02;4.78;;;;;;;28.95;33.33;95247.03;5107655;27;20041;-73
2021/07/25 09:50:41;;;;;;;7.75;4.88;;;;;;;29.28;32.48;95254.09;5088440;28;20039;-74
2021/07/25 09:53:08;;;;;;;8.38;5.78;;;;;;;29.54;32.93;95241.03;5106529;28;20060;-73
2021/07/25 09:55:35;;;;;;;7.00;4.50;;;;;;;29.91;32.88;95251.63;5088296;28;20051;-74
2021/07/25 09:58:04;;;;;;;5.78;5.13;;;;;;;29.59;33.47;95247.31;5106579;27;20118;-74
2021/07/25 10:00:46;;;;;;;7.13;5.25;;;;;;;29.58;37.18;95229.63;5106227;28;20031;-74
2021/07/25 10:03:16;;;;;;;11.48;4.45;;;;;;;30.01;35.20;95247.66;5088014;28;20054;-74
2021/07/25 10:05:44;;;;;;;9.18;4.40;;;;;;;30.28;31.14;95246.00;5105690;28;20414;-74
2021/07/25 10:08:15;;;;;;;5.47;4.30;;;;;;;30.57;32.15;95235.19;5107703;27;20046;-74
2021/07/25 10:10:47;;;;;;;12.10;5.30;;;;;;;30.68;30.81;95246.94;5106192;28;20067;-74
2021/07/25 10:13:19;;;;;;;8.45;3.88;;;;;;;30.71;33.37;95245.47;5105791;28;20428;-74
2021/07/25 10:15:56;;;;;;;9.95;5.15;;;;;;;31.18;30.67;95252.66;5105425;27;20043;-74
2021/07/25 10:18:25;;;;;;;6.15;4.53;;;;;;;30.31;32.70;95245.31;5106164;28;20051;-74
2021/07/25 10:20:58;;;;;;;8.90;4.40;;;;;;;30.42;33.86;95250.97;5106007;28;20525;-74
2021/07/25 10:23:32;;;;;;;7.22;4.43;;;;;;;30.44;34.27;95237.19;5104791;28;20035;-74
2021/07/25 10:26:03;;;;;;;6.35;5.03;;;;;;;30.39;31.44;95240.13;5103223;28;20044;-74
2021/07/25 10:28:34;;;;;;;6.78;4.47;;;;;;;30.86;32.99;95252.72;5105236;28;20516;-74
2021/07/25 10:31:03;;;;;;;12.88;4.45;;;;;;;31.02;31.88;95245.41;5106139;27;20766;-74
2021/07/25 10:33:31;;;;;;;8.23;4.47;;;;;;;31.16;31.29;95244.16;5107349;27;20071;-74
2021/07/25 10:35:59;;;;;;;8.32;3.97;;;;;;;30.79;33.29;95244.50;5105893;28;20054;-74
2021/07/25 10:38:25;;;;;;;7.50;4.78;;;;;;;30.93;33.49;95236.75;5107499;27;20044;-74
2021/07/25 10:40:53;;;;;;;5.57;5.00;;;;;;;30.93;31.85;95242.13;5110238;27;20445;-74
2021/07/25 10:43:25;;;;;;;9.85;4.68;;;;;;;30.65;30.27;95237.69;5105852;28;20123;-74
2021/07/25 10:46:14;;;;;;;12.93;4.75;;;;;;;30.51;31.22;95231.97;5104915;28;20040;-75
2021/07/25 10:49:04;;;;;;;7.03;4.15;;;;;;;30.90;33.48;95226.69;5107293;28;20042;-75
2021/07/25 10:51:33;;;;;;;8.88;4.70;;;;;;;31.34;31.23;95226.44;5105579;28;20073;-74
2021/07/25 10:54:21;;;;;;;7.63;4.20;;;;;;;31.55;29.27;95226.13;5105672;28;20058;-75
2021/07/25 10:57:03;;;;;;;5.70;4.38;;;;;;;31.63;29.07;95229.72;5104034;28;20031;-74
2021/07/25 10:59:40;;;;;;;8.45;3.92;;;;;;;31.88;28.78;95224.00;5093421;27;20040;-75
2021/07/25 11:02:17;;;;;;;6.07;3.97;;;;;;;31.57;31.30;95231.91;5112423;27;20058;-74
2021/07/25 11:04:59;;;;;;;7.35;4.15;;;;;;;31.99;32.07;95224.94;5112739;27;20136;-75
2021/07/25 11:07:26;;;;;;;4.45;4.00;;;;;;;32.68;28.57;95221.44;5112577;27;20562;-74
2021/07/25 11:10:09;;;;;;;5.38;4.28;;;;;;;33.21;26.95;95220.63;5093674;27;20044;-75
2021/07/25 11:12:50;;;;;;;9.75;4.10;;;;;;;33.55;25.56;95213.28;5095499;27;20039;-75
2021/07/25 11:15:32;;;;;;;6.45;3.78;;;;;;;33.56;24.96;95214.06;5112395;27;20036;-74
2021/07/25 11:18:05;;;;;;;4.10;3.70;;;;;;;33.88;23.68;95214.41;5111288;27;20089;-75
2021/07/25 11:20:33;;;;;;;4.82;3.85;;;;;;;34.09;24.10;95214.59;5093660;27;20043;-75
2021/07/25 11:23:01;;;;;;;7.30;4.35;;;;;;;33.89;24.43;95215.97;5110843;27;20055;-75
2021/07/25 11:25:35;;;;;;;5.85;4.18;;;;;;;34.16;24.54;95208.47;5110522;27;20524;-75
2021/07/25 11:28:06;;;;;;;6.32;3.80;;;;;;;34.01;25.01;95199.44;5112379;27;20078;-74
2021/07/25 11:30:59;;;;;;;8.40;4.28;;;;;;;33.49;26.02;95209.34;5112230;27;20114;-75
2021/07/25 11:33:38;;;;;;;8.32;4.25;;;;;;;33.76;24.13;95206.56;5093548;27;20058;-75
2021/07/25 11:36:09;;;;;;;5.13;4.13;;;;;;;34.16;25.63;95202.28;5112120;27;20051;-75